Clarkston, Georgia
Current Conditions -  °F | °C
As of 6:53 AM on Wednesday 28 Jan 2015 (Local Time) from KPDK Reporting Station
Clear Clear  
Wind Chill: 23°   Ceiling: Unl
Heat Index: 30°   Visibility: 10mi
Dew Point: 24°   Wind: 7mph
Humidity: 79%   Direction: 310°NW
Pressure: 30.21"   Gusts: NA
Location:  33.81°N, 84.24°W
Report Text: KPDK 281153Z 31006KT 10SM CLR M01/M04 A3021 RMK AO2 SLP246 T10111044 10022 21011 53028
Loading
Personal Weather Stations






























Interactive Weather Map New forecast layout! Learn more

10-Day Weather Forecast

Advertisements
Track Severe Weather on mobile